Time;durP1;ratioP1;P1;durP2;ratioP2;P2;SDS_P1;SDS_P2;PMS_P1;PMS_P2;Temp;Humidity;BMP_temperature;BMP_pressure;BME280_temperature;BME280_humidity;BME280_pressure;Samples;Min_cycle;Max_cycle;Signal;HPM_P1;HPM_P2
2022/05/27 00:00:44;;;;;;;3.08;1.58;;;16.40;59.30;;;16.79;50.71;98222.03;5029057;28;20061;-39
2022/05/27 00:03:12;;;;;;;2.60;2.13;;;16.50;59.70;;;16.74;50.88;98205.63;5029577;28;20049;-39
2022/05/27 00:05:41;;;;;;;1.58;1.35;;;16.40;59.60;;;16.70;50.99;98212.41;5027692;28;20045;-39
2022/05/27 00:08:10;;;;;;;1.70;1.50;;;16.30;60.00;;;16.65;51.24;98218.34;5027862;28;20055;-39
2022/05/27 00:10:38;;;;;;;1.67;1.52;;;16.30;60.90;;;16.58;51.37;98214.72;5028418;28;20255;-39
2022/05/27 00:13:07;;;;;;;2.22;2.00;;;16.30;60.70;;;16.60;51.20;98215.38;5028080;28;20053;-39
2022/05/27 00:15:35;;;;;;;3.78;1.80;;;16.20;60.50;;;16.59;51.38;98204.81;5028986;28;20369;-39
2022/05/27 00:18:03;;;;;;;2.63;1.55;;;16.20;60.70;;;16.52;51.72;98207.41;5027687;28;20045;-38
2022/05/27 00:20:31;;;;;;;3.17;1.42;;;16.20;61.10;;;16.49;51.80;98191.66;5028170;28;20067;-39
2022/05/27 00:23:00;;;;;;;3.53;1.80;;;16.20;61.20;;;16.47;51.68;98199.88;5028884;28;20057;-38
2022/05/27 00:25:28;;;;;;;2.05;1.33;;;16.10;61.30;;;16.44;51.92;98197.59;5028586;28;20060;-38
2022/05/27 00:27:57;;;;;;;4.72;2.65;;;16.10;61.80;;;16.37;52.19;98199.34;5028400;28;20053;-38
2022/05/27 00:30:25;;;;;;;2.40;1.50;;;16.00;62.10;;;16.31;52.41;98205.44;5027444;28;20250;-39
2022/05/27 00:32:54;;;;;;;4.13;1.88;;;16.00;62.40;;;16.29;52.55;98197.56;5026999;28;20053;-38
2022/05/27 00:35:22;;;;;;;4.35;2.50;;;16.00;62.50;;;16.32;52.73;98204.41;5028046;28;20049;-38
2022/05/27 00:37:50;;;;;;;1.73;1.40;;;16.00;62.70;;;16.33;52.39;98203.41;5028900;28;20045;-38
2022/05/27 00:40:20;;;;;;;2.28;1.60;;;16.00;62.40;;;16.27;52.74;98196.91;5028425;28;20045;-38
2022/05/27 00:42:48;;;;;;;1.60;1.42;;;16.00;62.90;;;16.28;52.72;98189.69;5028731;28;20053;-39
2022/05/27 00:45:24;;;;;;;3.00;1.98;;;16.00;63.20;;;16.27;53.10;98193.41;5027606;28;20091;-39
2022/05/27 00:47:57;;;;;;;4.75;2.03;;;16.00;63.60;;;16.27;52.87;98183.50;5029137;28;20057;-38
2022/05/27 00:50:30;;;;;;;2.67;1.85;;;16.00;63.40;;;16.27;53.15;98183.50;5027631;28;20045;-38
2022/05/27 00:53:01;;;;;;;2.35;2.03;;;16.00;63.30;;;16.27;52.96;98183.50;5027617;28;20352;-38
2022/05/27 00:55:33;;;;;;;2.40;2.13;;;16.00;63.10;;;16.27;52.99;98174.59;5027951;28;20287;-40
2022/05/27 00:58:17;;;;;;;4.78;2.00;;;16.00;63.20;;;16.26;53.37;98163.00;5027669;28;20057;-39
2022/05/27 01:00:46;;;;;;;3.55;1.70;;;16.00;63.80;;;16.24;52.96;98178.47;5027694;28;20046;-38
2022/05/27 01:03:16;;;;;;;2.50;1.65;;;15.90;63.20;;;16.21;53.23;98173.50;5027553;28;20049;-39
2022/05/27 01:05:46;;;;;;;4.90;1.85;;;15.90;63.90;;;16.15;53.23;98176.91;5025657;28;20056;-38
2022/05/27 01:08:20;;;;;;;2.00;1.70;;;15.80;64.00;;;16.14;53.30;98175.22;5027311;28;20352;-38
2022/05/27 01:11:06;;;;;;;2.47;1.70;;;15.80;64.20;;;16.12;53.57;98167.34;5026113;28;20064;-39
2022/05/27 01:13:49;;;;;;;3.00;1.90;;;15.80;64.90;;;16.09;53.53;98173.09;5027741;28;20052;-38
2022/05/27 01:16:17;;;;;;;7.50;2.10;;;15.80;64.80;;;16.08;53.55;98165.22;5028390;28;20057;-38
2022/05/27 01:22:17;;;;;;;3.17;1.98;;;15.70;65.40;;;15.97;54.50;98165.66;5027131;28;20315;-39
2022/05/27 01:25:46;;;;;;;3.22;2.00;;;15.70;66.20;;;15.93;55.07;98174.06;5027715;28;20049;-38
2022/05/27 01:28:42;;;;;;;3.63;1.95;;;15.60;67.10;;;15.92;55.18;98161.69;5025446;28;20065;-39
2022/05/27 01:31:31;;;;;;;4.50;2.13;;;15.60;67.20;;;15.94;54.81;98165.03;5028347;28;20297;-38
2022/05/27 01:34:38;;;;;;;2.63;2.08;;;15.70;66.80;;;15.90;55.17;98170.94;5024936;28;20057;-38
2022/05/27 01:37:13;;;;;;;4.10;1.85;;;15.60;67.70;;;15.84;55.77;98166.28;5026082;28;20061;-38
2022/05/27 01:40:08;;;;;;;3.38;2.00;;;15.60;67.20;;;15.87;54.83;98166.75;5026385;28;20239;-39
2022/05/27 01:42:58;;;;;;;3.22;1.60;;;15.60;67.00;;;15.88;55.54;98170.31;5025357;28;20063;-38
2022/05/27 01:45:46;;;;;;;3.72;2.50;;;15.60;67.00;;;15.86;54.82;98164.28;5027067;28;20050;-39
2022/05/27 01:48:34;;;;;;;2.25;1.92;;;15.60;67.70;;;15.84;55.37;98159.09;5026145;28;20367;-38
2022/05/27 01:51:26;;;;;;;3.90;1.85;;;15.60;67.70;;;15.83;55.54;98165.47;5026268;28;20064;-38
2022/05/27 01:54:23;;;;;;;2.95;1.75;;;15.50;68.20;;;15.80;55.85;98163.16;5026491;28;20060;-39
2022/05/27 01:57:04;;;;;;;5.32;2.75;;;15.50;68.90;;;15.77;56.17;98157.31;5025254;28;20247;-38
2022/05/27 01:59:54;;;;;;;3.50;2.03;;;15.50;68.90;;;15.79;55.59;98152.59;5025814;28;20044;-39
2022/05/27 02:02:26;;;;;;;2.28;1.92;;;15.50;68.30;;;15.82;55.59;98154.91;5027239;28;20045;-39
2022/05/27 02:05:09;;;;;;;3.13;1.80;;;15.50;68.10;;;15.85;55.37;98154.53;5026224;28;20243;-38
2022/05/27 02:07:53;;;;;;;3.03;2.10;;;15.60;68.40;;;15.87;55.47;98156.03;5027477;28;20049;-38
2022/05/27 02:10:32;;;;;;;4.32;2.50;;;15.60;67.70;;;15.90;55.50;98160.22;5025848;28;20356;-38
2022/05/27 02:13:17;;;;;;;2.88;2.03;;;15.60;68.50;;;15.89;55.56;98153.97;5027249;28;20268;-38
2022/05/27 02:15:50;;;;;;;4.13;2.45;;;15.60;67.90;;;15.87;55.58;98153.34;5025929;28;20071;-39
2022/05/27 02:18:39;;;;;;;4.30;2.17;;;15.60;68.00;;;15.88;55.57;98146.13;5025729;28;20056;-38
2022/05/27 02:21:38;;;;;;;2.80;1.90;;;15.60;68.90;;;15.83;55.76;98146.66;5026557;28;20079;-39
2022/05/27 02:24:36;;;;;;;3.05;1.88;;;15.50;68.50;;;15.85;55.63;98139.25;5025663;28;20063;-39
2022/05/27 02:27:20;;;;;;;4.55;2.28;;;15.50;69.50;;;15.78;56.42;98146.41;5025289;28;20243;-38
2022/05/27 02:29:53;;;;;;;3.55;1.80;;;15.50;70.00;;;15.79;55.98;98137.31;5023648;28;20265;-38
2022/05/27 02:32:47;;;;;;;3.10;1.90;;;15.50;69.40;;;15.74;55.94;98132.50;5025843;28;20576;-38
2022/05/27 02:35:26;;;;;;;3.22;2.00;;;15.50;69.70;;;15.74;55.94;98132.50;5027488;28;20049;-39
2022/05/27 02:37:59;;;;;;;4.43;1.90;;;15.50;70.00;;;15.75;56.17;98128.78;5024366;28;20235;-38
2022/05/27 02:41:11;;;;;;;4.07;1.90;;;15.50;69.50;;;15.74;56.78;98129.81;5026208;28;20045;-38
2022/05/27 02:44:16;;;;;;;3.03;2.25;;;15.50;70.00;;;15.69;56.91;98125.97;5026728;28;20343;-38
2022/05/27 02:47:09;;;;;;;3.78;1.77;;;15.40;70.90;;;15.67;56.64;98128.84;5025151;28;20252;-39
2022/05/27 02:50:10;;;;;;;3.95;1.98;;;15.40;71.20;;;15.61;56.78;98129.56;5026969;28;20045;-38
2022/05/27 02:52:54;;;;;;;2.65;1.95;;;15.30;71.50;;;15.65;56.82;98130.03;5025804;28;20063;-38
2022/05/27 02:55:42;;;;;;;2.35;1.65;;;15.40;71.30;;;15.64;57.11;98133.72;5025758;28;20046;-38
2022/05/27 02:58:10;;;;;;;3.95;2.22;;;15.30;71.40;;;15.65;56.84;98124.69;5026306;28;20368;-38
2022/05/27 03:00:40;;;;;;;2.92;1.80;;;15.30;70.80;;;15.63;57.02;98135.59;5026225;28;20046;-39
2022/05/27 03:03:08;;;;;;;4.22;2.45;;;15.30;70.90;;;15.62;57.09;98115.13;5025172;28;20045;-38
2022/05/27 03:06:05;;;;;;;5.45;1.92;;;15.30;71.20;;;15.59;57.12;98112.81;5027061;28;20052;-38
2022/05/27 03:08:40;;;;;;;2.85;1.90;;;15.30;71.80;;;15.59;57.02;98120.03;5026199;28;20053;-38
2022/05/27 03:11:41;;;;;;;2.78;2.03;;;15.30;71.30;;;15.54;57.61;98129.44;5025781;28;20384;-38
2022/05/27 03:14:30;;;;;;;3.15;2.35;;;15.20;72.30;;;15.52;57.46;98136.00;5026861;28;20053;-39
2022/05/27 03:17:42;;;;;;;2.33;1.88;;;15.20;73.10;;;15.47;58.45;98133.88;5025123;28;20053;-38
2022/05/27 03:20:39;;;;;;;3.42;1.90;;;15.20;72.70;;;15.52;57.56;98120.75;5040564;28;20053;-38
2022/05/27 03:24:02;;;;;;;2.95;2.58;;;15.30;72.70;;;15.42;57.95;98132.75;5024162;28;20050;-38
2022/05/27 03:27:04;;;;;;;5.90;2.97;;;15.20;73.00;;;15.44;57.77;98125.34;5032435;28;20057;-39
2022/05/27 03:29:53;;;;;;;2.67;1.88;;;15.10;73.70;;;15.42;57.58;98127.38;5025989;28;20049;-39
2022/05/27 03:32:39;;;;;;;3.28;2.80;;;15.10;73.90;;;15.39;57.62;98128.56;5028373;28;20055;-39
2022/05/27 03:35:48;;;;;;;5.70;2.40;;;15.00;73.20;;;15.38;58.27;98120.72;5030274;28;20832;-39
2022/05/27 03:38:24;;;;;;;4.32;2.58;;;15.10;74.30;;;15.36;57.80;98128.94;5029574;28;20061;-39
2022/05/27 03:41:23;;;;;;;3.15;2.30;;;15.00;74.00;;;15.34;57.70;98134.47;5029099;28;20053;-39
2022/05/27 03:43:53;;;;;;;5.00;2.55;;;15.00;74.40;;;15.30;58.12;98132.34;5028371;28;20056;-39
2022/05/27 03:46:33;;;;;;;3.88;2.13;;;15.00;74.80;;;15.33;58.32;98132.81;5027876;28;20824;-39
2022/05/27 03:49:03;;;;;;;5.68;3.40;;;15.00;75.00;;;15.31;58.30;98134.81;5030050;28;20077;-39
2022/05/27 03:51:43;;;;;;;3.75;2.53;;;15.00;74.50;;;15.30;58.19;98135.03;5029369;28;20233;-39
2022/05/27 03:54:11;;;;;;;3.90;2.03;;;14.90;74.70;;;15.29;58.24;98136.03;5027215;28;20268;-39
2022/05/27 03:56:42;;;;;;;4.07;2.47;;;14.90;74.90;;;15.30;58.25;98138.53;5028866;28;20067;-39
2022/05/27 03:59:13;;;;;;;4.15;2.35;;;14.90;75.00;;;15.24;58.45;98141.13;5028858;28;20224;-39
2022/05/27 04:01:44;;;;;;;4.93;3.30;;;14.90;75.70;;;15.22;58.84;98143.13;5028869;28;20053;-39
2022/05/27 04:04:16;;;;;;;3.90;2.80;;;14.90;76.40;;;15.19;59.24;98143.50;5027835;28;20053;-39
2022/05/27 04:06:46;;;;;;;3.70;2.53;;;14.90;76.80;;;15.19;59.03;98147.00;5028396;28;20355;-40
2022/05/27 04:09:16;;;;;;;4.57;3.15;;;14.90;77.30;;;15.11;59.78;98137.16;5028371;28;20050;-39
2022/05/27 04:11:44;;;;;;;4.32;3.25;;;14.80;77.90;;;15.18;59.23;98136.44;5029599;28;20180;-39
2022/05/27 04:14:12;;;;;;;4.95;2.92;;;14.90;77.60;;;15.17;59.87;98140.97;5030759;28;20390;-39
2022/05/27 04:16:41;;;;;;;4.13;3.15;;;14.90;78.50;;;15.19;59.62;98135.44;5028445;28;20107;-39
2022/05/27 04:19:09;;;;;;;4.72;3.78;;;14.90;78.10;;;15.22;59.61;98140.44;5029667;28;20063;-39
2022/05/27 04:21:38;;;;;;;5.10;3.38;;;14.90;77.90;;;15.22;59.69;98138.59;5028816;28;20354;-38
2022/05/27 04:24:07;;;;;;;5.10;3.15;;;14.90;78.20;;;15.20;59.69;98143.31;5028567;28;20064;-39
2022/05/27 04:26:35;;;;;;;4.53;3.55;;;14.90;78.50;;;15.22;60.03;98146.66;5028420;28;20106;-39
2022/05/27 04:29:04;;;;;;;5.82;3.13;;;15.00;78.70;;;15.22;60.22;98141.28;5028245;28;20057;-39
2022/05/27 04:31:32;;;;;;;9.73;3.58;;;15.00;78.80;;;15.26;60.08;98136.41;5028640;28;20057;-39
2022/05/27 04:34:00;;;;;;;5.25;3.17;;;15.00;78.70;;;15.23;60.30;98140.25;5028702;28;20367;-39
2022/05/27 04:36:28;;;;;;;4.95;3.75;;;15.00;79.20;;;15.26;60.17;98136.41;5029030;28;20057;-39
2022/05/27 04:38:57;;;;;;;11.10;3.53;;;15.00;79.30;;;15.28;60.31;98145.94;5029103;28;20053;-39
2022/05/27 04:41:25;;;;;;;6.10;3.70;;;15.00;79.20;;;15.33;60.26;98146.25;5028235;28;20053;-39
2022/05/27 04:43:53;;;;;;;6.15;3.47;;;15.10;79.40;;;15.34;60.40;98147.88;5027407;28;20045;-39
2022/05/27 04:46:21;;;;;;;7.38;3.88;;;15.10;79.40;;;15.40;60.61;98148.19;5028661;28;20723;-39
2022/05/27 04:48:49;;;;;;;5.60;3.33;;;15.20;79.30;;;15.45;60.32;98154.69;5029322;28;20049;-39
2022/05/27 04:51:17;;;;;;;7.80;3.53;;;15.20;78.90;;;15.52;60.38;98161.00;5027407;28;20501;-39
2022/05/27 04:53:45;;;;;;;6.45;3.28;;;15.40;78.70;;;15.61;60.29;98150.22;5029346;28;20063;-39
2022/05/27 04:56:13;;;;;;;5.55;3.53;;;15.50;78.30;;;15.66;60.32;98151.31;5028033;28;20260;-38
2022/05/27 04:58:40;;;;;;;5.97;3.92;;;15.50;79.20;;;15.72;60.12;98153.28;5027084;28;20062;-39
2022/05/27 05:01:08;;;;;;;5.07;3.08;;;15.60;77.90;;;15.77;60.15;98151.94;5027571;28;20343;-39
2022/05/27 05:03:36;;;;;;;5.07;3.10;;;15.70;77.60;;;15.74;60.61;98155.81;5028189;28;20057;-39
2022/05/27 05:06:04;;;;;;;8.93;3.38;;;15.60;78.70;;;15.72;60.46;98165.84;5028227;28;20050;-39
2022/05/27 05:08:36;;;;;;;5.43;4.10;;;15.50;79.00;;;15.43;62.14;98172.81;5010071;28;20056;-39
2022/05/27 05:11:05;;;;;;;5.38;3.75;;;15.30;80.80;;;15.28;62.54;98159.34;5028033;28;20057;-39
2022/05/27 05:13:35;;;;;;;6.43;3.92;;;15.20;81.50;;;15.20;62.64;98166.59;5027787;28;20060;-39
2022/05/27 05:16:04;;;;;;;5.28;3.33;;;15.10;81.90;;;15.01;63.48;98154.50;5027547;28;20045;-39
2022/05/27 05:18:32;;;;;;;7.75;4.10;;;15.00;83.10;;;15.03;63.23;98153.31;5027471;28;20422;-40
2022/05/27 05:21:00;;;;;;;5.35;3.53;;;15.00;83.30;;;15.05;63.30;98171.91;5027759;28;20045;-39
2022/05/27 05:23:27;;;;;;;9.52;3.63;;;15.00;83.40;;;15.11;62.78;98174.69;5027020;28;20160;-39
2022/05/27 05:25:55;;;;;;;4.75;3.28;;;15.00;83.10;;;14.98;63.62;98168.25;5028908;28;20229;-39
2022/05/27 05:28:23;;;;;;;3.60;3.03;;;15.00;83.90;;;15.09;63.29;98168.69;5027890;28;20412;-39
2022/05/27 05:30:52;;;;;;;7.00;3.58;;;15.10;83.60;;;15.11;63.33;98184.59;5012350;28;20061;-39
2022/05/27 05:33:20;;;;;;;4.43;3.55;;;15.10;83.50;;;15.19;62.94;98184.53;5022730;28;20076;-39
2022/05/27 05:35:47;;;;;;;6.15;3.88;;;15.10;83.40;;;15.29;62.63;98181.63;5008137;28;20084;-39
2022/05/27 05:38:17;;;;;;;6.97;3.60;;;15.20;83.30;;;15.22;63.01;98183.34;5006621;28;20058;-40
2022/05/27 05:40:46;;;;;;;5.05;3.10;;;15.10;83.80;;;15.08;63.62;98187.63;5022300;28;20364;-39
2022/05/27 05:43:14;;;;;;;3.70;3.22;;;15.00;84.80;;;15.16;63.02;98175.00;5007553;28;20060;-39
2022/05/27 05:45:42;;;;;;;4.78;3.72;;;15.00;84.50;;;14.93;64.01;98172.28;5007489;28;20247;-39
2022/05/27 05:48:10;;;;;;;7.32;3.80;;;14.90;85.40;;;15.06;63.36;98169.06;5007683;28;20060;-40
2022/05/27 05:50:38;;;;;;;4.38;3.30;;;15.00;85.50;;;15.13;63.30;98170.00;5007792;28;20066;-39
2022/05/27 05:53:12;;;;;;;5.07;3.25;;;15.00;85.00;;;15.16;63.32;98175.00;5008902;28;20072;-40
2022/05/27 05:55:40;;;;;;;3.85;2.72;;;15.10;85.00;;;15.03;63.82;98171.25;5023290;28;20351;-39
2022/05/27 05:58:10;;;;;;;7.43;3.50;;;15.00;85.20;;;15.07;63.44;98177.94;5007190;28;20081;-39
2022/05/27 06:00:38;;;;;;;4.57;3.08;;;15.00;85.40;;;15.14;63.30;98185.09;5004788;28;20061;-39
2022/05/27 06:03:06;;;;;;;4.80;3.45;;;15.00;85.30;;;15.16;63.30;98177.69;5007170;28;20064;-40
2022/05/27 06:05:34;;;;;;;5.50;3.58;;;15.00;85.70;;;15.13;63.33;98172.66;5007789;28;20506;-40
2022/05/27 06:08:02;;;;;;;6.15;3.65;;;15.00;84.40;;;15.16;63.27;98179.56;5005941;28;20057;-39
2022/05/27 06:10:29;;;;;;;3.92;3.08;;;15.10;84.20;;;15.24;62.97;98182.16;5006430;28;20046;-39
2022/05/27 06:12:58;;;;;;;5.10;3.15;;;15.10;84.30;;;15.23;62.92;98185.84;5007535;28;20225;-39
2022/05/27 06:15:26;;;;;;;5.28;3.42;;;15.20;83.40;;;15.23;62.82;98176.97;5007685;28;20050;-39
2022/05/27 06:17:54;;;;;;;4.22;3.20;;;15.10;83.60;;;15.26;62.74;98185.50;5007647;28;20177;-39
2022/05/27 06:20:22;;;;;;;8.15;3.63;;;15.20;83.60;;;15.25;62.87;98178.47;5007096;28;20076;-39
2022/05/27 06:22:50;;;;;;;6.35;3.60;;;15.20;83.40;;;15.35;62.31;98178.22;5006138;28;20379;-39
2022/05/27 06:25:23;;;;;;;6.18;3.10;;;15.20;82.50;;;15.24;62.50;98181.34;5006473;28;20057;-39
2022/05/27 06:34:23;;;;;;;4.55;2.95;;;15.20;81.50;;;15.33;62.11;98178.44;5006802;28;20072;-38
2022/05/27 06:36:13;;;;;;;5.45;3.15;;;15.10;81.90;;;15.05;62.95;98196.88;5007418;28;20370;-38
2022/05/27 06:38:41;;;;;;;3.17;2.25;;;15.00;82.40;;;15.08;62.79;98188.47;5005995;28;20050;-38
2022/05/27 06:41:09;;;;;;;3.35;2.58;;;15.00;83.10;;;15.25;62.33;98191.88;5006756;28;20054;-38
2022/05/27 06:43:37;;;;;;;5.53;3.08;;;15.20;82.40;;;14.96;62.99;98197.91;5006495;28;20052;-39
2022/05/27 06:46:05;;;;;;;4.32;2.67;;;15.00;81.80;;;14.85;63.19;98188.44;5007037;28;20042;-39
2022/05/27 06:48:34;;;;;;;4.28;3.30;;;14.90;82.50;;;15.07;62.65;98192.16;5005898;28;20046;-39
2022/05/27 06:51:06;;;;;;;4.13;2.80;;;15.00;82.20;;;15.01;62.94;98192.03;5006531;28;20072;-39
2022/05/27 06:53:35;;;;;;;6.53;2.88;;;15.10;81.30;;;14.99;62.98;98186.03;5006246;28;20381;-39
2022/05/27 06:56:06;;;;;;;4.45;2.92;;;15.10;81.50;;;14.99;62.87;98197.56;5006868;28;20064;-40
2022/05/27 06:58:35;;;;;;;5.22;2.80;;;15.00;81.70;;;14.95;63.13;98197.09;5006940;28;20436;-39
2022/05/27 07:01:04;;;;;;;4.05;2.80;;;15.00;81.50;;;15.09;62.79;98189.31;5005571;28;20156;-40
2022/05/27 07:03:32;;;;;;;4.85;2.97;;;15.10;81.70;;;15.20;62.48;98193.41;5009590;28;20247;-39
2022/05/27 07:06:01;;;;;;;5.40;2.90;;;15.30;80.70;;;15.21;62.31;98193.25;5009353;28;20239;-40
2022/05/27 07:08:29;;;;;;;4.47;2.70;;;15.30;80.30;;;15.04;62.83;98179.09;5009968;28;20056;-39
2022/05/27 07:10:56;;;;;;;3.22;2.33;;;15.20;80.60;;;14.96;63.21;98205.94;5009543;28;20046;-40
2022/05/27 07:13:24;;;;;;;6.35;2.78;;;15.10;81.50;;;15.22;62.50;98192.25;5010832;28;20060;-39
2022/05/27 07:15:52;;;;;;;8.00;2.95;;;15.30;81.20;;;15.17;62.68;98191.94;5010132;28;20054;-39
2022/05/27 07:18:20;;;;;;;6.32;3.28;;;15.30;81.00;;;15.28;62.42;98198.75;5009029;28;20058;-40
2022/05/27 07:20:49;;;;;;;3.75;2.85;;;15.40;80.70;;;15.41;62.12;98201.69;5010090;28;20061;-39
2022/05/27 07:23:19;;;;;;;4.82;2.88;;;15.50;80.50;;;15.17;62.28;98202.66;5010181;28;20052;-39
2022/05/27 07:25:47;;;;;;;6.65;3.38;;;15.30;79.70;;;15.20;62.33;98191.59;5010935;28;20063;-39
2022/05/27 07:28:15;;;;;;;6.45;2.97;;;15.20;80.60;;;15.27;62.32;98189.03;5009531;28;20287;-39
2022/05/27 07:30:43;;;;;;;4.50;3.28;;;15.30;80.10;;;15.43;62.10;98194.28;5009001;28;20057;-39
2022/05/27 07:33:11;;;;;;;5.57;2.92;;;15.50;79.90;;;15.40;61.99;98193.81;5009919;28;20057;-39
2022/05/27 07:35:39;;;;;;;7.80;3.15;;;15.50;79.50;;;15.48;61.82;98196.41;5008659;28;20348;-39
2022/05/27 07:38:07;;;;;;;6.63;3.45;;;15.50;79.90;;;15.54;61.62;98193.00;5010030;28;20049;-39
2022/05/27 07:40:35;;;;;;;3.90;3.10;;;15.60;79.00;;;15.63;61.49;98202.69;5008838;28;20056;-39
2022/05/27 07:43:03;;;;;;;5.95;3.05;;;15.60;79.00;;;15.51;61.85;98196.06;5009665;28;20049;-38
2022/05/27 07:45:32;;;;;;;5.38;2.90;;;15.50;79.40;;;15.48;61.81;98201.78;5010202;28;20056;-38
2022/05/27 07:48:00;;;;;;;7.25;3.10;;;15.50;79.90;;;15.52;61.82;98200.41;5010499;28;20060;-39
2022/05/27 07:50:28;;;;;;;8.05;3.78;;;15.50;80.20;;;15.49;62.10;98200.75;5009943;28;20054;-39
2022/05/27 07:52:56;;;;;;;5.22;3.13;;;15.50;80.20;;;15.30;62.66;98200.22;5010684;28;20056;-39
2022/05/27 07:55:25;;;;;;;3.83;2.80;;;15.40;80.50;;;15.52;62.07;98203.09;5010580;28;20049;-39
2022/05/27 07:57:53;;;;;;;4.25;2.90;;;15.50;79.70;;;15.42;61.94;98203.34;5009750;28;20057;-38
2022/05/27 08:00:33;;;;;;;4.28;2.60;;;15.50;79.30;;;15.60;61.81;98208.41;5025280;28;20053;-38
2022/05/27 08:03:02;;;;;;;4.18;3.20;;;15.60;79.30;;;15.70;61.29;98208.16;5032362;28;20271;-38
2022/05/27 08:05:32;;;;;;;5.38;2.92;;;15.70;78.70;;;15.66;61.15;98202.31;5037817;28;20059;-39
2022/05/27 08:08:02;;;;;;;4.72;2.97;;;15.60;78.30;;;15.80;60.73;98206.09;5035721;28;20240;-39
2022/05/27 08:10:36;;;;;;;3.55;3.00;;;15.80;77.50;;;15.79;60.94;98206.28;5036732;28;20348;-38
2022/05/27 08:13:04;;;;;;;4.97;3.65;;;15.80;77.60;;;15.78;61.09;98209.97;5032701;28;20068;-38
2022/05/27 08:15:32;;;;;;;5.38;3.10;;;15.80;78.10;;;15.68;61.38;98211.03;5033644;28;20050;-38
2022/05/27 08:18:00;;;;;;;4.10;2.40;;;15.70;78.30;;;15.75;60.85;98203.94;5037335;28;20048;-39
2022/05/27 08:20:32;;;;;;;4.63;2.58;;;15.80;77.70;;;15.70;61.30;98208.16;5027852;28;20057;-39
2022/05/27 08:23:01;;;;;;;3.45;2.65;;;15.70;78.20;;;15.66;61.40;98213.03;5028500;28;20042;-39
2022/05/27 08:25:30;;;;;;;5.30;3.00;;;15.60;78.80;;;15.61;61.70;98214.63;5028921;28;20344;-38
2022/05/27 08:27:57;;;;;;;4.32;3.47;;;15.50;79.50;;;15.32;62.29;98216.16;5027885;28;20253;-39
2022/05/27 08:30:31;;;;;;;4.25;3.03;;;15.40;79.30;;;15.26;62.39;98220.38;5028513;28;20054;-38
2022/05/27 08:32:59;;;;;;;5.38;4.10;;;15.20;80.20;;;15.43;62.11;98215.75;5028421;28;20059;-38
2022/05/27 08:38:22;;;;;;;8.73;4.90;;;15.60;78.00;;;15.45;61.02;98212.88;5027833;28;20124;-39
2022/05/27 08:41:17;;;;;;;3.28;2.97;;;15.70;76.20;;;15.72;60.75;98217.72;5027643;28;20075;-39
2022/05/27 08:44:04;;;;;;;4.10;3.05;;;15.90;74.80;;;15.73;60.05;98211.34;5028439;28;20063;-39
2022/05/27 08:46:41;;;;;;;3.67;2.75;;;16.00;73.30;;;15.86;59.61;98215.28;5028373;28;20041;-39
2022/05/27 08:49:19;;;;;;;6.50;2.78;;;16.10;73.20;;;16.20;59.56;98217.47;5027998;28;20053;-39
2022/05/27 08:52:04;;;;;;;4.25;2.80;;;16.60;72.30;;;16.44;58.65;98215.53;5026827;28;20048;-39
2022/05/27 08:55:00;;;;;;;4.85;2.83;;;16.90;70.40;;;16.52;57.61;98220.84;5028579;28;20373;-39
2022/05/27 09:00:29;;;;;;;6.40;3.50;;;16.90;68.30;;;16.71;56.90;98222.97;5027966;28;20087;-40
2022/05/27 09:03:03;;;;;;;5.25;2.88;;;17.10;67.80;;;16.83;56.29;98225.22;5027303;28;20046;-40
2022/05/27 09:05:56;;;;;;;3.72;2.85;;;17.20;66.50;;;16.55;56.32;98209.72;5028365;28;20079;-40
2022/05/27 09:08:26;;;;;;;3.72;2.78;;;16.90;66.90;;;16.67;56.92;98216.31;5027564;28;20066;-40
2022/05/27 09:11:27;;;;;;;3.58;2.95;;;16.80;68.00;;;16.28;57.09;98213.88;5027765;28;20255;-39
2022/05/27 09:14:14;;;;;;;3.03;2.67;;;16.50;68.80;;;15.99;57.99;98217.34;5027678;28;20045;-40
2022/05/27 09:16:56;;;;;;;4.13;2.47;;;16.20;70.20;;;16.22;57.57;98212.75;5027549;28;20057;-39
2022/05/27 09:20:14;;;;;;;3.10;2.53;;;16.20;70.40;;;16.27;57.09;98218.41;5026451;28;20049;-39
2022/05/27 09:22:53;;;;;;;3.95;3.00;;;16.40;68.70;;;16.13;57.24;98203.94;5026568;28;20053;-40
2022/05/27 09:25:49;;;;;;;3.03;2.38;;;16.20;69.00;;;16.27;57.21;98210.34;5026407;28;20224;-39
2022/05/27 09:29:01;;;;;;;3.10;2.25;;;16.30;69.30;;;16.11;57.03;98207.81;5027261;28;20041;-39
2022/05/27 09:31:40;;;;;;;3.30;2.60;;;16.20;69.00;;;16.13;58.01;98209.31;5025103;28;20057;-40
2022/05/27 09:34:12;;;;;;;4.60;2.78;;;16.20;71.10;;;16.10;58.11;98216.91;5025491;28;20243;-39
2022/05/27 09:36:47;;;;;;;4.38;2.88;;;16.10;71.20;;;15.93;58.59;98208.97;5026929;28;20282;-40
2022/05/27 09:39:19;;;;;;;3.88;2.72;;;16.00;71.70;;;16.05;58.43;98206.72;5027693;28;20601;-40
2022/05/27 09:42:16;;;;;;;4.30;2.70;;;16.20;71.20;;;15.84;58.78;98206.56;5026141;28;20052;-40
2022/05/27 09:44:53;;;;;;;5.45;2.80;;;16.20;71.00;;;16.06;58.58;98203.00;5027618;28;20075;-39
2022/05/27 09:47:30;;;;;;;5.45;2.97;;;16.30;71.10;;;16.38;58.18;98197.47;5027084;28;20075;-40
2022/05/27 09:50:02;;;;;;;4.93;2.85;;;16.60;70.30;;;16.63;57.76;98196.16;5026090;28;20056;-40
2022/05/27 09:52:38;;;;;;;5.80;2.75;;;16.90;69.80;;;16.95;57.80;98198.69;5027468;28;20051;-40
2022/05/27 09:55:22;;;;;;;3.72;2.97;;;17.30;69.90;;;17.14;56.40;98200.78;5025341;28;20067;-39
2022/05/27 09:58:04;;;;;;;4.15;3.30;;;17.60;66.40;;;17.17;55.93;98191.47;5026880;28;20059;-40
2022/05/27 10:00:46;;;;;;;3.40;2.67;;;17.60;65.40;;;17.42;56.14;98194.66;5026339;28;20052;-40
2022/05/27 10:03:38;;;;;;;5.07;2.90;;;17.80;66.60;;;17.22;54.23;98181.81;5026751;28;20053;-39
2022/05/27 10:06:15;;;;;;;3.25;2.45;;;17.60;62.70;;;17.43;54.99;98177.50;5026659;28;20347;-39
2022/05/27 10:08:53;;;;;;;3.97;2.67;;;17.70;64.40;;;17.54;54.50;98178.81;5025700;28;20059;-40
2022/05/27 10:11:24;;;;;;;5.88;2.58;;;17.80;63.40;;;17.51;54.67;98171.97;5026269;28;20053;-39
2022/05/27 10:14:06;;;;;;;4.32;2.50;;;17.80;63.70;;;17.68;53.41;98177.91;5026218;28;20063;-39
2022/05/27 10:16:35;;;;;;;3.72;2.42;;;18.00;61.90;;;17.72;52.66;98176.50;5026746;28;20053;-40
2022/05/27 10:19:23;;;;;;;4.75;2.50;;;18.00;60.70;;;17.61;52.96;98171.66;5025646;28;20049;-40
2022/05/27 10:22:07;;;;;;;2.75;2.42;;;17.90;61.80;;;17.57;53.21;98167.69;5023781;28;20049;-39
2022/05/27 10:24:44;;;;;;;3.35;2.40;;;17.80;63.20;;;17.38;53.79;98163.75;5026484;28;20071;-39
2022/05/27 10:27:20;;;;;;;4.70;2.67;;;17.60;62.60;;;17.50;54.13;98167.59;5025567;28;20059;-39
2022/05/27 10:29:59;;;;;;;3.63;2.75;;;17.70;63.50;;;17.32;54.36;98166.19;5026204;28;20057;-40
2022/05/27 10:32:43;;;;;;;3.78;2.42;;;17.70;63.40;;;17.45;54.22;98165.50;5026581;28;20041;-39
2022/05/27 10:35:32;;;;;;;3.75;2.67;;;17.80;62.90;;;17.55;54.51;98167.88;5026577;28;20049;-39
2022/05/27 10:38:31;;;;;;;3.60;2.42;;;17.90;64.00;;;17.72;53.67;98154.97;5026802;28;20063;-39
2022/05/27 10:41:32;;;;;;;3.00;2.20;;;18.10;62.00;;;17.81;53.59;98152.97;5023834;28;20053;-40
2022/05/27 10:44:18;;;;;;;2.72;2.15;;;18.20;62.30;;;17.82;54.13;98157.34;5024755;28;20049;-39
2022/05/27 10:46:54;;;;;;;2.83;2.00;;;18.30;62.60;;;17.92;52.73;98162.41;5025204;28;20258;-39
2022/05/27 10:50:05;;;;;;;2.20;1.88;;;18.40;60.30;;;17.83;51.78;98157.09;5025658;28;20257;-39
2022/05/27 10:53:16;;;;;;;3.05;2.22;;;18.20;59.00;;;17.51;51.84;98151.25;5025966;28;20068;-39
2022/05/27 10:56:25;;;;;;;3.20;2.65;;;17.80;59.50;;;17.63;51.92;98146.19;5026315;28;20063;-40
2022/05/27 11:02:50;;;;;;;2.85;1.92;;;18.10;59.40;;;17.74;51.29;98138.59;5025963;28;20056;-39
2022/05/27 11:05:44;;;;;;;3.00;2.15;;;18.30;58.30;;;18.14;50.10;98134.38;5023504;28;20055;-39
2022/05/27 11:08:27;;;;;;;3.58;1.92;;;18.70;57.10;;;18.18;49.89;98134.81;5024103;28;20251;-40
2022/05/27 11:11:41;;;;;;;4.00;2.20;;;18.80;56.80;;;18.43;49.87;98132.47;5025191;28;20413;-39
2022/05/27 11:17:46;;;;;;;2.67;1.85;;;18.90;55.90;;;18.40;50.08;98130.19;5025230;28;20059;-39
2022/05/27 11:20:33;;;;;;;5.25;2.42;;;18.90;56.40;;;18.42;49.62;98122.72;5025107;28;20041;-39
2022/05/27 11:23:43;;;;;;;2.45;1.98;;;19.00;55.80;;;18.64;49.21;98123.44;5025566;28;20373;-40